Prosser, Nebraska
Current Conditions -  °F | °C
As of 9:53 AM on Thursday 23 Oct 2014 (Local Time) from KHSI Reporting Station
Moderate Fog Moderate Fog  
Wind Chill: 51°   Ceiling: 100
Heat Index: 51°   Visibility: 0mi
Dew Point: 49°   Wind: 3mph
Humidity: 92%   Direction: 180°S
Pressure: 30.11"   Gusts: NA
Location:  40.8074°N, 98.6117°W
Report Text: KHSI 231453Z AUTO 18003KT M1/4SM FG VV001 11/09 A3011 RMK AO2 SLP195 T01060094 53013
Loading
Personal Weather Stations






























Interactive Weather Map New forecast layout! Learn more

10-Day Weather Forecast

Advertisements
Track Severe Weather on mobile